createdAt,value
2022-12-01T00:01:17.804Z,100442.28
2022-12-01T00:03:45.410Z,100452.59
2022-12-01T00:06:15.914Z,100457.06
2022-12-01T00:09:06.875Z,100456.38
2022-12-01T00:11:35.203Z,100455.53
2022-12-01T00:14:02.899Z,100455.81
2022-12-01T00:16:30.350Z,100452.72
2022-12-01T00:18:58.027Z,100454.84
2022-12-01T00:21:25.634Z,100447.56
2022-12-01T00:23:54.499Z,100455.25
2022-12-01T00:26:22.376Z,100449.38
2022-12-01T00:28:53.299Z,100453.00
2022-12-01T00:31:20.906Z,100459.84
2022-12-01T00:33:50.080Z,100461.09
2022-12-01T00:36:17.424Z,100465.09
2022-12-01T00:38:44.789Z,100465.66
2022-12-01T00:41:12.443Z,100471.09
2022-12-01T00:43:40.436Z,100470.25
2022-12-01T00:46:07.844Z,100472.75
2022-12-01T00:48:35.518Z,100474.34
2022-12-01T00:51:03.191Z,100472.25
2022-12-01T00:53:30.539Z,100470.72
2022-12-01T00:55:58.160Z,100467.34
2022-12-01T00:58:25.581Z,100468.16
2022-12-01T01:01:02.344Z,100482.88
2022-12-01T01:03:30.242Z,100487.06
2022-12-01T01:06:03.458Z,100478.22
2022-12-01T01:08:31.063Z,100479.56
2022-12-01T01:10:59.212Z,100479.88
2022-12-01T01:13:26.549Z,100477.13
2022-12-01T01:16:01.638Z,100483.25
2022-12-01T01:18:29.088Z,100471.72
2022-12-01T01:20:58.226Z,100473.84
2022-12-01T01:23:25.573Z,100474.06
2022-12-01T01:25:52.952Z,100479.66
2022-12-01T01:28:20.555Z,100474.44
2022-12-01T01:30:47.931Z,100470.28
2022-12-01T01:33:15.308Z,100464.41
2022-12-01T01:35:42.908Z,100461.03
2022-12-01T01:38:10.750Z,100463.63
2022-12-01T01:40:45.105Z,100465.09
2022-12-01T01:43:17.049Z,100466.81
2022-12-01T01:45:44.423Z,100459.56
2022-12-01T01:48:11.993Z,100463.81
2022-12-01T01:50:39.578Z,100475.13
2022-12-01T01:53:11.673Z,100461.75
2022-12-01T01:55:39.007Z,100470.38
2022-12-01T01:58:07.805Z,100467.09
2022-12-01T02:00:35.151Z,100473.38
2022-12-01T02:03:02.783Z,100474.06
2022-12-01T02:05:32.331Z,100475.03
2022-12-01T02:08:01.377Z,100475.47
2022-12-01T02:10:58.538Z,100468.66
2022-12-01T02:13:38.084Z,100464.31
2022-12-01T02:16:19.442Z,100463.69
2022-12-01T02:18:46.597Z,100462.28
2022-12-01T02:21:14.070Z,100466.59
2022-12-01T02:23:59.879Z,100466.03
2022-12-01T02:27:01.623Z,100469.81
2022-12-01T02:29:31.859Z,100465.16
2022-12-01T02:32:08.611Z,100457.06
2022-12-01T02:34:40.310Z,100472.81
2022-12-01T02:37:44.776Z,100464.28
2022-12-01T02:40:20.814Z,100468.72
2022-12-01T02:42:53.969Z,100465.81
2022-12-01T02:45:52.190Z,100462.66
2022-12-01T02:48:26.543Z,100460.87
2022-12-01T02:50:53.943Z,100460.31
2022-12-01T02:53:21.616Z,100460.66
2022-12-01T02:55:53.026Z,100460.72
2022-12-01T02:58:20.384Z,100467.53
2022-12-01T03:01:05.851Z,100460.41
2022-12-01T03:04:02.889Z,100460.22
2022-12-01T03:06:40.420Z,100457.50
2022-12-01T03:09:13.031Z,100462.62
2022-12-01T03:12:06.579Z,100469.06
2022-12-01T03:14:52.753Z,100460.72
2022-12-01T03:17:22.752Z,100458.47
2022-12-01T03:19:55.804Z,100459.44
2022-12-01T03:22:26.084Z,100452.53
2022-12-01T03:24:54.039Z,100453.22
2022-12-01T03:27:24.340Z,100450.53
2022-12-01T03:29:52.027Z,100441.53
2022-12-01T03:32:32.314Z,100446.09
2022-12-01T03:35:05.407Z,100442.31
2022-12-01T03:37:38.796Z,100442.59
2022-12-01T03:40:08.109Z,100438.47
2022-12-01T03:42:38.495Z,100442.38
2022-12-01T03:45:12.422Z,100431.09
2022-12-01T03:47:40.447Z,100444.09
2022-12-01T03:50:09.830Z,100444.53
2022-12-01T03:52:52.369Z,100436.03
2022-12-01T03:55:21.949Z,100438.00
2022-12-01T03:58:08.382Z,100429.97
2022-12-01T04:00:36.039Z,100417.72
2022-12-01T04:03:04.168Z,100426.81
2022-12-01T04:05:32.606Z,100416.94
2022-12-01T04:08:00.225Z,100429.28
2022-12-01T04:10:27.970Z,100418.59
2022-12-01T04:12:59.324Z,100411.66
2022-12-01T04:15:26.925Z,100414.91
2022-12-01T04:17:54.675Z,100422.34
2022-12-01T04:20:22.864Z,100408.06
2022-12-01T04:22:50.220Z,100415.63
2022-12-01T04:25:17.901Z,100424.97
2022-12-01T04:27:45.244Z,100430.81
2022-12-01T04:30:13.156Z,100444.44
2022-12-01T04:32:41.554Z,100449.38
2022-12-01T04:35:09.668Z,100447.03
2022-12-01T04:37:37.099Z,100445.53
2022-12-01T04:40:05.795Z,100456.59
2022-12-01T04:42:33.167Z,100440.97
2022-12-01T04:45:00.485Z,100440.97
2022-12-01T04:47:28.095Z,100430.37
2022-12-01T04:49:55.437Z,100444.59
2022-12-01T04:52:22.752Z,100447.50
2022-12-01T04:54:50.344Z,100452.16
2022-12-01T04:57:17.659Z,100456.44
2022-12-01T04:59:44.969Z,100457.44
2022-12-01T05:02:12.663Z,100455.97
2022-12-01T05:04:41.666Z,100461.00
2022-12-01T05:07:09.069Z,100460.22
2022-12-01T05:09:36.695Z,100460.66
2022-12-01T05:12:04.269Z,100460.00
2022-12-01T05:14:31.630Z,100454.91
2022-12-01T05:17:00.495Z,100452.88
2022-12-01T05:19:46.713Z,100450.59
2022-12-01T05:22:14.584Z,100441.00
2022-12-01T05:24:41.937Z,100452.22
2022-12-01T05:27:09.278Z,100449.75
2022-12-01T05:29:36.913Z,100445.50
2022-12-01T05:32:04.935Z,100448.28
2022-12-01T05:34:32.386Z,100452.22
2022-12-01T05:36:59.985Z,100452.75
2022-12-01T05:39:27.357Z,100461.84
2022-12-01T05:41:54.703Z,100458.59
2022-12-01T05:44:22.290Z,100458.72
2022-12-01T05:46:49.717Z,100451.66
2022-12-01T05:49:17.060Z,100455.06
2022-12-01T05:51:44.669Z,100453.72
2022-12-01T05:54:12.064Z,100467.03
2022-12-01T05:56:39.376Z,100465.28
2022-12-01T05:59:06.951Z,100467.03
2022-12-01T06:01:34.334Z,100457.78
2022-12-01T06:04:02.126Z,100473.72
2022-12-01T06:06:29.586Z,100471.44
2022-12-01T06:08:56.971Z,100480.50
2022-12-01T06:11:24.577Z,100474.41
2022-12-01T06:13:51.900Z,100482.19
2022-12-01T06:16:19.262Z,100485.56
2022-12-01T06:18:46.919Z,100489.38
2022-12-01T06:21:14.572Z,100483.66
2022-12-01T06:23:41.908Z,100491.56
2022-12-01T06:26:09.523Z,100487.25
2022-12-01T06:28:36.886Z,100489.03
2022-12-01T06:31:04.265Z,100493.22
2022-12-01T06:33:32.052Z,100494.28
2022-12-01T06:35:59.983Z,100495.75
2022-12-01T06:38:30.266Z,100486.97
2022-12-01T06:41:00.436Z,100484.84
2022-12-01T06:43:27.805Z,100484.59
2022-12-01T06:46:00.871Z,100493.81
2022-12-01T06:48:29.725Z,100487.00
2022-12-01T06:51:00.349Z,100486.06
2022-12-01T06:53:28.613Z,100490.59
2022-12-01T06:56:03.089Z,100485.94
2022-12-01T06:58:30.800Z,100483.78
2022-12-01T07:00:59.313Z,100495.75
2022-12-01T07:03:26.901Z,100500.66
2022-12-01T07:06:00.747Z,100499.59
2022-12-01T07:08:28.905Z,100500.12
2022-12-01T07:11:00.706Z,100498.88
2022-12-01T07:13:33.049Z,100494.66
2022-12-01T07:16:02.998Z,100498.41
2022-12-01T07:18:31.122Z,100498.25
2022-12-01T07:21:07.198Z,100503.53
2022-12-01T07:23:35.195Z,100506.19
2022-12-01T07:26:03.062Z,100494.53
2022-12-01T07:28:30.516Z,100494.66
2022-12-01T07:31:08.719Z,100489.84
2022-12-01T07:33:36.090Z,100495.31
2022-12-01T07:36:05.397Z,100496.81
2022-12-01T07:38:32.919Z,100487.94
2022-12-01T07:41:10.125Z,100497.66
2022-12-01T07:43:37.920Z,100495.03
2022-12-01T07:46:15.753Z,100495.16
2022-12-01T07:48:46.503Z,100500.50
2022-12-01T07:51:16.599Z,100502.28
2022-12-01T07:53:45.089Z,100498.47
2022-12-01T07:56:12.756Z,100500.12
2022-12-01T07:58:40.185Z,100502.03
2022-12-01T08:01:09.040Z,100507.06
2022-12-01T08:03:36.782Z,100504.22
2022-12-01T08:06:04.648Z,100508.00
2022-12-01T08:08:33.327Z,100505.31
2022-12-01T08:11:06.124Z,100505.25
2022-12-01T08:13:33.550Z,100510.09
2022-12-01T08:16:04.724Z,100510.09
2022-12-01T08:18:34.527Z,100506.25
2022-12-01T08:21:02.175Z,100502.78
2022-12-01T08:23:29.562Z,100491.56
2022-12-01T08:26:03.251Z,100493.53
2022-12-01T08:28:31.035Z,100494.91
2022-12-01T08:30:58.541Z,100493.88
2022-12-01T08:33:25.901Z,100499.78
2022-12-01T08:35:53.534Z,100495.88
2022-12-01T08:38:20.858Z,100501.72
2022-12-01T08:40:48.239Z,100497.34
2022-12-01T08:43:34.669Z,100500.19
2022-12-01T08:46:03.272Z,100499.09
2022-12-01T08:48:33.405Z,100495.25
2022-12-01T08:51:06.551Z,100501.81
2022-12-01T08:53:34.852Z,100507.28
2022-12-01T08:56:07.250Z,100503.81
2022-12-01T08:58:36.009Z,100502.28
2022-12-01T09:01:04.603Z,100504.34
2022-12-01T09:03:32.098Z,100505.37
2022-12-01T09:06:16.437Z,100509.28
2022-12-01T09:08:43.876Z,100507.47
2022-12-01T09:11:16.130Z,100504.41
2022-12-01T09:13:43.672Z,100498.16
2022-12-01T09:16:13.509Z,100494.44
2022-12-01T09:18:41.342Z,100504.44
2022-12-01T09:21:16.831Z,100500.25
2022-12-01T09:23:44.492Z,100496.06
2022-12-01T09:26:13.925Z,100493.44
2022-12-01T09:28:41.492Z,100492.28
2022-12-01T09:31:10.757Z,100499.94
2022-12-01T09:33:38.520Z,100498.84
2022-12-01T09:36:07.090Z,100496.56
2022-12-01T09:38:35.245Z,100488.63
2022-12-01T09:41:05.657Z,100485.66
2022-12-01T09:43:45.821Z,100489.75
2022-12-01T09:46:22.834Z,100484.72
2022-12-01T09:48:51.712Z,100470.22
2022-12-01T09:51:21.136Z,100476.09
2022-12-01T09:53:54.644Z,100478.81
2022-12-01T09:56:24.634Z,100473.00
2022-12-01T09:59:02.878Z,100479.78
2022-12-01T10:01:37.858Z,100471.50
2022-12-01T10:04:21.593Z,100466.78
2022-12-01T10:06:52.946Z,100458.78
2022-12-01T10:09:36.487Z,100469.75
2022-12-01T10:12:15.081Z,100474.25
2022-12-01T10:14:44.787Z,100477.50
2022-12-01T10:17:59.879Z,100461.59
2022-12-01T10:20:33.302Z,100455.00
2022-12-01T10:23:08.339Z,100450.56
2022-12-01T10:25:57.973Z,100461.59
2022-12-01T10:28:43.687Z,100448.00
2022-12-01T10:31:35.924Z,100452.62
2022-12-01T10:34:13.962Z,100438.81
2022-12-01T10:36:41.605Z,100444.31
2022-12-01T10:39:23.919Z,100428.19
2022-12-01T10:41:51.552Z,100434.22
2022-12-01T10:44:18.976Z,100435.25
2022-12-01T10:46:52.448Z,100444.47
2022-12-01T10:49:20.168Z,100447.56
2022-12-01T10:51:57.400Z,100439.81
2022-12-01T10:54:33.517Z,100433.78
2022-12-01T10:57:01.400Z,100441.88
2022-12-01T10:59:36.439Z,100436.31
2022-12-01T11:02:05.419Z,100437.69
2022-12-01T11:04:45.133Z,100432.25
2022-12-01T11:07:17.562Z,100437.13
2022-12-01T11:09:45.809Z,100423.19
2022-12-01T11:12:15.513Z,100421.53
2022-12-01T11:14:43.817Z,100409.28
2022-12-01T11:17:30.933Z,100407.03
2022-12-01T11:19:59.012Z,100403.13
2022-12-01T11:22:30.853Z,100396.75
2022-12-01T11:25:03.265Z,100396.16
2022-12-01T11:27:50.599Z,100399.34
2022-12-01T11:30:25.959Z,100402.72
2022-12-01T11:33:01.652Z,100404.25
2022-12-01T11:35:33.538Z,100396.16
2022-12-01T11:40:52.558Z,100390.28
2022-12-01T11:43:29.895Z,100386.25
2022-12-01T11:45:58.871Z,100384.41
2022-12-01T11:48:28.691Z,100380.22
2022-12-01T11:51:37.208Z,100390.88
2022-12-01T11:54:20.208Z,100389.84
2022-12-01T11:56:56.136Z,100389.22
2022-12-01T11:59:36.224Z,100387.94
2022-12-01T12:02:25.983Z,100392.31
2022-12-01T12:05:20.116Z,100390.88
2022-12-01T12:08:09.357Z,100381.12
2022-12-01T12:10:57.088Z,100386.41
2022-12-01T12:13:40.490Z,100386.56
2022-12-01T12:16:28.886Z,100381.69
2022-12-01T12:19:33.814Z,100390.31
2022-12-01T12:22:14.159Z,100380.53
2022-12-01T12:25:02.711Z,100383.34
2022-12-01T12:27:48.603Z,100385.16
2022-12-01T12:30:21.813Z,100374.22
2022-12-01T12:33:09.865Z,100372.59
2022-12-01T12:36:12.013Z,100381.66
2022-12-01T12:39:17.227Z,100371.63
2022-12-01T12:42:20.091Z,100370.75
2022-12-01T12:44:52.875Z,100365.66
2022-12-01T12:47:38.156Z,100371.44
2022-12-01T12:50:46.821Z,100365.41
2022-12-01T12:53:22.079Z,100366.44
2022-12-01T12:55:51.322Z,100366.94
2022-12-01T12:58:36.416Z,100361.59
2022-12-01T13:01:26.381Z,100366.19
2022-12-01T13:04:14.483Z,100376.66
2022-12-01T13:06:45.884Z,100370.50
2022-12-01T13:09:20.950Z,100374.84
2022-12-01T13:12:16.026Z,100367.28
2022-12-01T13:14:48.962Z,100359.28
2022-12-01T13:17:22.507Z,100365.78
2022-12-01T13:19:49.971Z,100366.88
2022-12-01T13:22:18.931Z,100365.28
2022-12-01T13:24:46.305Z,100364.47
2022-12-01T13:27:17.649Z,100363.00
2022-12-01T13:29:49.682Z,100372.47
2022-12-01T13:32:40.412Z,100365.47
2022-12-01T13:35:21.697Z,100367.84
2022-12-01T13:37:49.052Z,100366.50
2022-12-01T13:40:29.633Z,100365.25
2022-12-01T13:43:05.489Z,100369.16
2022-12-01T13:45:37.098Z,100371.53
2022-12-01T13:48:05.214Z,100367.38
2022-12-01T13:50:45.998Z,100358.06
2022-12-01T13:53:19.362Z,100362.50
2022-12-01T13:56:00.465Z,100357.09
2022-12-01T13:58:34.216Z,100359.91
2022-12-01T14:01:20.603Z,100358.56
2022-12-01T14:04:22.367Z,100361.38
2022-12-01T14:06:50.187Z,100364.38
2022-12-01T14:09:32.089Z,100352.44
2022-12-01T14:12:01.304Z,100353.66
2022-12-01T14:14:34.638Z,100352.75
2022-12-01T14:17:03.237Z,100347.25
2022-12-01T14:19:46.086Z,100350.88
2022-12-01T14:22:35.106Z,100351.84
2022-12-01T14:25:06.048Z,100354.31
2022-12-01T14:27:42.274Z,100354.31
2022-12-01T14:30:41.073Z,100345.66
2022-12-01T14:33:49.132Z,100353.78
2022-12-01T14:36:49.189Z,100354.88
2022-12-01T14:39:31.275Z,100345.13
2022-12-01T14:42:11.420Z,100343.09
2022-12-01T14:44:43.893Z,100355.78
2022-12-01T14:47:11.375Z,100354.81
2022-12-01T14:49:55.720Z,100361.28
2022-12-01T14:52:26.295Z,100359.28
2022-12-01T14:55:01.622Z,100363.50
2022-12-01T14:57:32.272Z,100364.38
2022-12-01T15:00:11.014Z,100367.28
2022-12-01T15:03:09.266Z,100362.56
2022-12-01T15:05:43.456Z,100372.41
2022-12-01T15:08:45.704Z,100366.94
2022-12-01T15:11:23.289Z,100371.00
2022-12-01T15:13:54.810Z,100366.69
2022-12-01T15:16:24.029Z,100368.69
2022-12-01T15:18:52.028Z,100365.78
2022-12-01T15:21:26.975Z,100366.56
2022-12-01T15:24:01.335Z,100360.41
2022-12-01T15:26:45.977Z,100356.28
2022-12-01T15:29:20.570Z,100363.25
2022-12-01T15:31:51.238Z,100366.56
2022-12-01T15:34:25.075Z,100362.44
2022-12-01T15:36:53.238Z,100361.34
2022-12-01T15:39:33.950Z,100368.28
2022-12-01T15:42:25.300Z,100366.63
2022-12-01T15:45:19.621Z,100366.63
2022-12-01T15:47:49.081Z,100370.62
2022-12-01T15:50:31.434Z,100372.59
2022-12-01T15:53:28.902Z,100367.44
2022-12-01T15:55:59.184Z,100369.37
2022-12-01T15:58:30.296Z,100363.25
2022-12-01T16:01:04.765Z,100367.59
2022-12-01T16:03:47.058Z,100371.50
2022-12-01T16:06:14.427Z,100370.53
2022-12-01T16:08:42.103Z,100369.81
2022-12-01T16:11:16.821Z,100375.25
2022-12-01T16:13:56.351Z,100381.25
2022-12-01T16:16:36.844Z,100374.44
2022-12-01T16:19:07.341Z,100380.72
2022-12-01T16:21:53.826Z,100379.72
2022-12-01T16:24:27.522Z,100377.66
2022-12-01T16:27:00.230Z,100372.75
2022-12-01T16:29:29.306Z,100371.09
2022-12-01T16:32:19.225Z,100375.53
2022-12-01T16:34:47.405Z,100372.50
2022-12-01T16:37:14.973Z,100371.12
2022-12-01T16:39:42.433Z,100374.47
2022-12-01T16:42:12.467Z,100375.72
2022-12-01T16:44:40.697Z,100375.03
2022-12-01T16:47:13.900Z,100377.50
2022-12-01T16:49:41.534Z,100377.50
2022-12-01T16:52:42.576Z,100381.12
2022-12-01T16:54:56.697Z,100380.56
2022-12-01T16:57:24.117Z,100380.56
2022-12-01T16:59:51.455Z,100383.34
2022-12-01T17:02:19.093Z,100383.22
2022-12-01T17:04:46.497Z,100375.00
2022-12-01T17:07:13.849Z,100383.66
2022-12-01T17:09:41.516Z,100389.22
2022-12-01T17:12:08.867Z,100390.59
2022-12-01T17:14:38.096Z,100388.53
2022-12-01T17:17:05.870Z,100395.34
2022-12-01T17:19:33.207Z,100393.25
2022-12-01T17:22:00.552Z,100391.44
2022-12-01T17:24:28.225Z,100392.56
2022-12-01T17:26:55.576Z,100400.50
2022-12-01T17:29:22.899Z,100398.97
2022-12-01T17:31:50.519Z,100398.28
2022-12-01T17:34:17.899Z,100399.78
2022-12-01T17:36:45.384Z,100398.94
2022-12-01T17:39:13.096Z,100396.69
2022-12-01T17:41:42.141Z,100393.37
2022-12-01T17:44:09.519Z,100394.62
2022-12-01T17:46:38.522Z,100393.66
2022-12-01T17:49:09.475Z,100402.81
2022-12-01T17:51:37.160Z,100418.56
2022-12-01T17:54:04.869Z,100404.84
2022-12-01T17:56:32.284Z,100404.16
2022-12-01T17:58:59.893Z,100403.94
2022-12-01T18:01:30.369Z,100398.28
2022-12-01T18:03:59.037Z,100400.22
2022-12-01T18:06:26.915Z,100409.41
2022-12-01T18:08:54.247Z,100408.59
2022-12-01T18:11:22.895Z,100407.91
2022-12-01T18:13:50.535Z,100406.91
2022-12-01T18:16:25.042Z,100406.28
2022-12-01T18:18:52.930Z,100410.63
2022-12-01T18:21:21.183Z,100407.69
2022-12-01T18:23:58.160Z,100404.97
2022-12-01T18:26:26.077Z,100405.84
2022-12-01T18:28:54.838Z,100407.44
2022-12-01T18:31:22.356Z,100408.25
2022-12-01T18:33:50.141Z,100395.38
2022-12-01T18:36:19.860Z,100410.63
2022-12-01T18:38:47.456Z,100402.91
2022-12-01T18:41:15.557Z,100415.63
2022-12-01T18:43:42.961Z,100412.19
2022-12-01T18:46:13.913Z,100410.00
2022-12-01T18:48:48.656Z,100413.28
2022-12-01T18:51:16.256Z,100414.19
2022-12-01T18:53:45.431Z,100412.84
2022-12-01T18:56:15.054Z,100414.28
2022-12-01T18:58:42.855Z,100415.19
2022-12-01T19:01:21.526Z,100414.28
2022-12-01T19:03:49.032Z,100419.94
2022-12-01T19:06:17.103Z,100417.31
2022-12-01T19:08:47.050Z,100412.22
2022-12-01T19:11:16.340Z,100416.94
2022-12-01T19:13:44.041Z,100417.44
2022-12-01T19:16:18.423Z,100422.78
2022-12-01T19:18:46.270Z,100416.91
2022-12-01T19:21:15.233Z,100426.97
2022-12-01T19:23:42.852Z,100423.69
2022-12-01T19:26:11.956Z,100415.63
2022-12-01T19:28:42.128Z,100429.38
2022-12-01T19:31:11.325Z,100426.22
2022-12-01T19:33:38.773Z,100423.69
2022-12-01T19:36:07.651Z,100422.12
2022-12-01T19:38:35.319Z,100422.34
2022-12-01T19:41:02.759Z,100430.22
2022-12-01T19:43:30.264Z,100424.00
2022-12-01T19:45:57.986Z,100427.09
2022-12-01T19:48:25.416Z,100428.91
2022-12-01T19:50:52.737Z,100424.72
2022-12-01T19:53:20.373Z,100429.25
2022-12-01T19:55:47.714Z,100434.31
2022-12-01T19:58:15.057Z,100432.06
2022-12-01T20:00:42.654Z,100435.66
2022-12-01T20:03:10.287Z,100434.25
2022-12-01T20:05:37.657Z,100430.72
2022-12-01T20:08:05.107Z,100434.28
2022-12-01T20:10:33.597Z,100432.72
2022-12-01T20:13:01.113Z,100432.69
2022-12-01T20:15:28.571Z,100434.91
2022-12-01T20:17:56.248Z,100433.22
2022-12-01T20:20:23.632Z,100430.56
2022-12-01T20:22:50.982Z,100437.72
2022-12-01T20:25:18.820Z,100434.94
2022-12-01T20:27:46.149Z,100437.50
2022-12-01T20:30:14.093Z,100427.94
2022-12-01T20:32:41.824Z,100430.00
2022-12-01T20:35:11.938Z,100437.34
2022-12-01T20:37:39.663Z,100430.09
2022-12-01T20:40:07.724Z,100434.78
2022-12-01T20:42:36.846Z,100436.09
2022-12-01T20:45:04.698Z,100438.41
2022-12-01T20:47:36.589Z,100441.00
2022-12-01T20:50:05.380Z,100444.66
2022-12-01T20:52:33.008Z,100441.41
2022-12-01T20:55:00.423Z,100447.63
2022-12-01T20:57:27.962Z,100449.38
2022-12-01T20:59:55.557Z,100453.03
2022-12-01T21:02:23.057Z,100451.53
2022-12-01T21:04:52.245Z,100458.75
2022-12-01T21:07:21.696Z,100461.31
2022-12-01T21:09:49.290Z,100461.56
2022-12-01T21:12:35.454Z,100462.22
2022-12-01T21:15:08.435Z,100462.19
2022-12-01T21:18:09.062Z,100466.34
2022-12-01T21:20:40.363Z,100475.38
2022-12-01T21:23:12.993Z,100465.91
2022-12-01T21:25:41.516Z,100466.78
2022-12-01T21:28:19.060Z,100465.19
2022-12-01T21:30:47.623Z,100461.22
2022-12-01T21:33:23.308Z,100465.53
2022-12-01T21:35:51.965Z,100462.09
2022-12-01T21:38:22.075Z,100463.25
2022-12-01T21:40:49.931Z,100468.81
2022-12-01T21:43:22.645Z,100477.91
2022-12-01T21:45:58.450Z,100474.78
2022-12-01T21:48:27.690Z,100468.81
2022-12-01T21:51:01.915Z,100471.78
2022-12-01T21:53:37.118Z,100473.34
2022-12-01T21:56:04.588Z,100479.16
2022-12-01T21:58:36.948Z,100473.69
2022-12-01T22:01:14.851Z,100474.78
2022-12-01T22:03:45.881Z,100475.72
2022-12-01T22:06:29.657Z,100471.22
2022-12-01T22:09:01.390Z,100473.47
2022-12-01T22:11:29.749Z,100483.38
2022-12-01T22:14:11.261Z,100480.44
2022-12-01T22:16:51.401Z,100470.72
2022-12-01T22:19:35.527Z,100471.78
2022-12-01T22:22:09.229Z,100477.41
2022-12-01T22:24:43.023Z,100474.78
2022-12-01T22:27:31.801Z,100463.87
2022-12-01T22:30:03.291Z,100459.19
2022-12-01T22:32:35.488Z,100467.34
2022-12-01T22:35:28.171Z,100456.81
2022-12-01T22:38:08.643Z,100463.50
2022-12-01T22:40:43.375Z,100467.72
2022-12-01T22:43:16.803Z,100459.56
2022-12-01T22:46:00.088Z,100451.53
2022-12-01T22:48:27.812Z,100454.66
2022-12-01T22:50:55.154Z,100450.56
2022-12-01T22:53:29.104Z,100456.09
2022-12-01T22:55:57.640Z,100446.03
2022-12-01T22:58:28.591Z,100448.69
2022-12-01T23:00:57.979Z,100448.88
2022-12-01T23:03:26.159Z,100444.72
2022-12-01T23:05:55.833Z,100438.62
2022-12-01T23:08:23.563Z,100441.13
2022-12-01T23:10:51.664Z,100438.28
2022-12-01T23:13:21.653Z,100436.72
2022-12-01T23:15:50.828Z,100443.00
2022-12-01T23:18:26.959Z,100448.69
2022-12-01T23:20:58.152Z,100448.13
2022-12-01T23:23:27.050Z,100444.13
2022-12-01T23:25:54.523Z,100442.66
2022-12-01T23:28:21.999Z,100441.03
2022-12-01T23:30:51.598Z,100441.13
2022-12-01T23:33:26.184Z,100435.66
2022-12-01T23:36:08.862Z,100443.69
2022-12-01T23:38:41.096Z,100445.91
2022-12-01T23:41:39.181Z,100448.44
2022-12-01T23:44:23.885Z,100452.88
2022-12-01T23:46:53.687Z,100451.28
2022-12-01T23:49:24.366Z,100448.72
2022-12-01T23:51:53.183Z,100452.28
2022-12-01T23:54:34.144Z,100447.69
2022-12-01T23:57:03.182Z,100450.50
2022-12-01T23:59:30.554Z,100454.63
